Offutt Air Force Base
KOFF : now visible

Airfield :











YOU CAN JOIN US ON...

 
LOGIN :

Register | Disclaimer

   EN    FR    IT 

 









Legend :    VFR   Marginal VFR   IFR   Intensive IFR   Very Intensive IFR
Visi :
Ceiling :
>= 8 km
>= 3000ft
5 to 8 km
1000 to 3000 ft
1500m to 5 km
500 to 1000 ft
800 to 1500m
200 to 500 ft
< 800m
< 200 ft
Symbols :   Thunderstorms  Fog  Heavy snow  Heavy precipitations  Wind > 20 kt






- Airport Elevation : 1052 ft


KOFF - Offutt Air Force Base

CURRENT METAR :
  • 080656Z 16005KT 10SM BKN180 05/M03 A2986 RMK AO2A SLP118 RVRNO $

EXPIRED METARs :
  • 080556Z 17007KT 10SM SCT200 05/M03 A2988 RMK AO2A SLP127 RVRNO $
  • 080456Z 17010KT 10SM SCT200 05/M03 A2990 RMK AO2A SLP135 RVRNO $

TAF TAF KOFF
Valid from the 08 at 02:00 until the 09 at 08:00 UTC


080200Z 0802/0908 18012KT 9999 FEW250 WS020/22055KT QNH2991INS
BECMG 0813/0814 VRB06KT 9999 FEW030 SCT250 QNH2982INS
BECMG 0900/0901 VRB06KT 9999 BKN020 OVC200 QNH2963INS TX08/0821Z TN01/0812Z



MET'MAP, your aeronautical weather chart ! - Copyright ORBIFLY December 2007 - Disclaimer

ORBIFLY MET'MAP TEAM :

Programming & Development : Alexandra Zaïnal
Concept & original design : Baudouin d'Aumeries
Assistance for programming : Marc-Olivier Méhu
Technical & hardware support : Manuel Goepfert

Contact : metmap@orbifly.com




SOURCES & CREDITS :

   NOAA       Earth
Advisory